Time;durP1;ratioP1;P1;durP2;ratioP2;P2;SDS_P1;SDS_P2;PMS_P1;PMS_P2;Temp;Humidity;BMP_temperature;BMP_pressure;BME280_temperature;BME280_humidity;BME280_pressure;Samples;Min_cycle;Max_cycle;Signal;HPM_P1;HPM_P2
2023/02/21 02:13:50;;;;;;;1.63;1.00;;;7.30;99.90;;;;;;4937764;29;20205;-80
2023/02/21 02:16:29;;;;;;;4.53;1.30;;;7.20;99.90;;;;;;4937529;29;20228;-80
2023/02/21 02:19:38;;;;;;;1.53;0.93;;;7.10;99.90;;;;;;4954895;29;20201;-78
2023/02/21 02:22:42;;;;;;;3.07;1.20;;;7.10;99.90;;;;;;4914371;29;20724;-82
2023/02/21 02:25:43;;;;;;;1.83;1.08;;;7.10;99.90;;;;;;4913669;29;20511;-70
2023/02/21 02:28:47;;;;;;;2.40;1.10;;;7.10;99.90;;;;;;4877762;29;20203;-71
2023/02/21 02:31:48;;;;;;;2.27;1.20;;;7.20;99.90;;;;;;4894483;29;20210;-71
2023/02/21 02:34:59;;;;;;;1.87;0.87;;;7.10;99.90;;;;;;4886520;29;20218;-72
2023/02/21 02:37:36;;;;;;;3.23;1.00;;;7.10;99.90;;;;;;4857577;29;20617;-72
2023/02/21 02:40:42;;;;;;;2.80;1.10;;;7.10;99.90;;;;;;4856904;29;20434;-73
2023/02/21 02:43:18;;;;;;;3.23;0.90;;;7.00;99.90;;;;;;4840602;29;20209;-72
2023/02/21 02:45:50;;;;;;;3.90;1.00;;;7.00;99.90;;;;;;4850158;29;20205;-70
2023/02/21 02:48:35;;;;;;;2.17;0.83;;;7.10;99.90;;;;;;4840250;29;20208;-73
2023/02/21 02:51:06;;;;;;;3.27;0.87;;;7.10;99.90;;;;;;4850623;29;20222;-71
2023/02/21 02:53:34;;;;;;;4.47;1.17;;;7.10;99.90;;;;;;4856157;29;20223;-70
2023/02/21 02:56:04;;;;;;;5.63;1.00;;;7.20;99.90;;;;;;4855980;29;20206;-69
2023/02/21 02:58:57;;;;;;;2.83;1.00;;;7.20;99.90;;;;;;4846826;29;20202;-69
2023/02/21 03:01:34;;;;;;;2.80;0.90;;;7.10;99.90;;;;;;4830637;29;20754;-70
2023/02/21 03:04:07;;;;;;;3.87;1.07;;;7.10;99.90;;;;;;4860843;29;20248;-70
2023/02/21 03:07:11;;;;;;;3.23;0.90;;;7.10;99.90;;;;;;4892414;29;20591;-71
2023/02/21 03:10:06;;;;;;;4.43;1.10;;;7.00;99.90;;;;;;4874101;29;20286;-71
2023/02/21 03:12:50;;;;;;;2.40;1.03;;;7.00;99.90;;;;;;4879178;29;20239;-70
2023/02/21 03:15:23;;;;;;;3.83;0.80;;;7.00;99.90;;;;;;4947980;29;20231;-70
2023/02/21 03:18:00;;;;;;;3.73;1.00;;;7.00;99.90;;;;;;4937084;29;20656;-70
2023/02/21 03:20:28;;;;;;;4.00;0.90;;;6.90;99.90;;;;;;4936687;29;20208;-68
2023/02/21 03:22:57;;;;;;;3.23;1.00;;;6.90;99.90;;;;;;4936681;29;20200;-70
2023/02/21 03:25:24;;;;;;;1.63;1.00;;;6.90;99.90;;;;;;4936869;29;20194;-71
2023/02/21 03:27:54;;;;;;;4.97;1.13;;;6.90;99.90;;;;;;4936886;29;20220;-71
2023/02/21 03:30:21;;;;;;;4.10;0.97;;;7.00;99.90;;;;;;4936972;29;20204;-70
2023/02/21 03:32:51;;;;;;;1.47;0.80;;;6.90;99.90;;;;;;4937046;29;20304;-71
2023/02/21 03:35:19;;;;;;;5.33;1.40;;;6.90;99.90;;;;;;4953907;29;20228;-68
2023/02/21 03:37:50;;;;;;;4.40;1.10;;;6.90;99.90;;;;;;4953979;29;20205;-68
2023/02/21 03:40:33;;;;;;;2.63;0.90;;;6.90;99.90;;;;;;4953026;28;20204;-68
2023/02/21 03:43:04;;;;;;;2.53;0.90;;;6.90;99.90;;;;;;4955587;28;20661;-69
2023/02/21 03:45:30;;;;;;;4.20;1.00;;;6.90;99.90;;;;;;4987926;28;20247;-69
2023/02/21 03:47:57;;;;;;;6.43;1.10;;;6.90;99.90;;;;;;4955384;28;20206;-68
2023/02/21 03:50:24;;;;;;;3.17;0.90;;;6.90;99.90;;;;;;4973275;28;20523;-69
2023/02/21 03:52:51;;;;;;;2.10;0.97;;;6.80;99.90;;;;;;4955572;28;20285;-69
2023/02/21 03:55:19;;;;;;;4.77;1.30;;;6.80;99.90;;;;;;4955619;28;20654;-69
2023/02/21 03:57:46;;;;;;;6.03;0.90;;;6.80;99.90;;;;;;4972962;28;20223;-69
2023/02/21 04:00:13;;;;;;;6.23;1.30;;;6.80;99.90;;;;;;4945397;29;20216;-72
2023/02/21 04:02:41;;;;;;;7.93;2.07;;;6.80;99.90;;;;;;4941139;29;20216;-69
2023/02/21 04:05:08;;;;;;;6.47;1.27;;;6.80;99.90;;;;;;4960832;28;20202;-69
2023/02/21 04:07:34;;;;;;;6.20;1.27;;;6.70;99.90;;;;;;4968529;28;20726;-69
2023/02/21 04:10:02;;;;;;;5.70;1.37;;;6.70;99.90;;;;;;4953086;29;20200;-69
2023/02/21 04:12:29;;;;;;;5.77;1.27;;;6.70;99.90;;;;;;4953468;29;20228;-70
2023/02/21 04:14:57;;;;;;;6.93;1.00;;;6.70;99.90;;;;;;4953377;29;20238;-71
2023/02/21 04:17:24;;;;;;;7.63;1.87;;;6.70;99.90;;;;;;4936327;29;20200;-70
2023/02/21 04:19:51;;;;;;;4.97;1.33;;;6.70;99.90;;;;;;4971688;28;20714;-82
2023/02/21 04:22:18;;;;;;;7.37;1.20;;;6.60;99.90;;;;;;4939744;29;20324;-84
2023/02/21 04:24:46;;;;;;;6.33;1.67;;;6.50;99.90;;;;;;4939577;29;20204;-84
2023/02/21 04:27:14;;;;;;;7.83;1.20;;;6.50;99.90;;;;;;4939388;29;20202;-82
2023/02/21 04:29:41;;;;;;;5.00;1.10;;;6.50;99.90;;;;;;4939578;29;20200;-81
2023/02/21 04:32:09;;;;;;;9.63;1.53;;;6.40;99.90;;;;;;4939530;29;20680;-78
2023/02/21 04:34:36;;;;;;;5.77;1.23;;;6.30;99.90;;;;;;4939595;29;20189;-81
2023/02/21 04:37:03;;;;;;;5.13;1.20;;;6.40;99.90;;;;;;4956722;29;20399;-78
2023/02/21 04:39:30;;;;;;;5.13;1.27;;;6.40;99.90;;;;;;4939975;29;20279;-82
2023/02/21 04:41:57;;;;;;;5.20;1.30;;;6.30;99.90;;;;;;4956352;29;20339;-80
2023/02/21 04:44:24;;;;;;;6.20;1.60;;;6.30;99.90;;;;;;4939270;29;20206;-81
2023/02/21 04:46:51;;;;;;;7.47;1.60;;;6.20;99.90;;;;;;4938986;29;20539;-86
2023/02/21 04:49:18;;;;;;;7.40;1.97;;;6.30;99.90;;;;;;4940087;29;20194;-81
2023/02/21 04:51:44;;;;;;;5.07;1.30;;;6.20;99.90;;;;;;4972539;28;20211;-73
2023/02/21 04:54:11;;;;;;;4.70;1.40;;;6.20;99.90;;;;;;4939615;29;20192;-73
2023/02/21 04:56:39;;;;;;;5.53;1.47;;;6.30;99.90;;;;;;4956494;29;20581;-73
2023/02/21 04:59:07;;;;;;;4.60;1.60;;;6.30;99.90;;;;;;4955932;28;20553;-85
2023/02/21 05:01:34;;;;;;;7.90;1.50;;;6.30;99.90;;;;;;4971656;28;20231;-84
2023/02/21 05:04:01;;;;;;;7.30;1.70;;;6.30;99.90;;;;;;4938140;28;20653;-82
2023/02/21 05:06:29;;;;;;;5.03;1.30;;;6.30;99.90;;;;;;4965910;28;20205;-82
2023/02/21 05:08:57;;;;;;;6.03;1.60;;;6.40;99.90;;;;;;4956283;29;20301;-85
2023/02/21 05:11:24;;;;;;;6.83;1.40;;;6.30;99.90;;;;;;4970934;28;20234;-75
2023/02/21 05:13:51;;;;;;;7.90;1.80;;;6.30;99.90;;;;;;4971026;28;20277;-73
2023/02/21 05:16:19;;;;;;;7.70;1.33;;;6.40;99.90;;;;;;4938706;29;21117;-73
2023/02/21 05:18:47;;;;;;;11.10;1.53;;;6.40;99.90;;;;;;4955749;29;20197;-77
2023/02/21 05:21:16;;;;;;;6.47;1.43;;;6.50;99.90;;;;;;4950159;28;20229;-88
2023/02/21 05:23:54;;;;;;;8.00;1.60;;;6.50;99.90;;;;;;4972872;28;20202;-85
2023/02/21 05:26:26;;;;;;;7.23;1.57;;;6.50;99.90;;;;;;4950139;28;20211;-88
2023/02/21 05:28:53;;;;;;;10.57;2.17;;;6.50;99.90;;;;;;4938114;28;20281;-85
2023/02/21 05:31:20;;;;;;;8.77;1.87;;;6.50;99.90;;;;;;4939763;29;20205;-83
2023/02/21 05:33:47;;;;;;;7.97;1.57;;;6.60;99.90;;;;;;4946143;28;20201;-90
2023/02/21 05:36:14;;;;;;;6.60;1.27;;;6.50;99.90;;;;;;4958727;28;20205;-80
2023/02/21 05:38:49;;;;;;;8.30;1.67;;;6.60;99.90;;;;;;4954742;29;20519;-85
2023/02/21 05:41:17;;;;;;;5.50;1.70;;;6.50;99.90;;;;;;4953375;28;20190;-84
2023/02/21 05:43:45;;;;;;;7.13;1.50;;;6.60;99.90;;;;;;4937783;29;20204;-82
2023/02/21 05:46:30;;;;;;;9.87;1.90;;;6.50;99.90;;;;;;4939319;29;21735;-82
2023/02/21 05:48:58;;;;;;;5.50;1.60;;;6.50;99.90;;;;;;4937918;29;20208;-87
2023/02/21 05:51:26;;;;;;;5.37;1.40;;;6.50;99.90;;;;;;4964123;28;20226;-87
2023/02/21 05:53:53;;;;;;;5.77;1.73;;;6.50;99.90;;;;;;4954346;28;20558;-79
2023/02/21 05:56:20;;;;;;;9.27;1.53;;;6.50;99.90;;;;;;4953240;28;20860;-80
2023/02/21 05:58:48;;;;;;;4.77;1.40;;;6.50;99.90;;;;;;4952851;29;20291;-80
2023/02/21 06:01:15;;;;;;;6.23;1.50;;;6.50;99.90;;;;;;4961177;28;20214;-78
2023/02/21 06:03:42;;;;;;;5.27;1.43;;;6.50;99.90;;;;;;4936659;29;20566;-75
2023/02/21 06:06:09;;;;;;;8.50;1.50;;;6.50;99.90;;;;;;4935951;29;20192;-80
2023/02/21 06:08:47;;;;;;;6.17;1.27;;;6.50;99.90;;;;;;4936628;29;20192;-79
2023/02/21 06:11:23;;;;;;;6.67;1.80;;;6.50;99.90;;;;;;4935923;28;20210;-78
2023/02/21 06:13:51;;;;;;;7.50;1.40;;;6.50;99.90;;;;;;4946104;28;20223;-72
2023/02/21 06:16:18;;;;;;;10.07;1.80;;;6.50;99.90;;;;;;4978153;28;20233;-73
2023/02/21 06:18:48;;;;;;;9.97;1.60;;;6.50;99.90;;;;;;4957383;28;20211;-74
2023/02/21 06:21:15;;;;;;;8.67;1.50;;;6.60;99.90;;;;;;4972980;28;20213;-73
2023/02/21 06:23:42;;;;;;;10.13;1.90;;;6.60;99.90;;;;;;4956702;28;20197;-72
2023/02/21 06:26:09;;;;;;;9.10;1.77;;;6.60;99.90;;;;;;4936676;29;20196;-73
2023/02/21 06:28:36;;;;;;;6.67;1.87;;;6.60;99.90;;;;;;4952652;28;20201;-73
2023/02/21 06:31:04;;;;;;;7.43;1.67;;;6.50;99.90;;;;;;4935607;29;20202;-75
2023/02/21 06:33:31;;;;;;;8.67;1.73;;;6.50;99.90;;;;;;4953545;28;20190;-73
2023/02/21 06:36:06;;;;;;;8.93;1.77;;;6.50;99.90;;;;;;4936199;29;20212;-72
2023/02/21 06:38:33;;;;;;;7.27;1.67;;;6.50;99.90;;;;;;4935966;29;20201;-74
2023/02/21 06:41:05;;;;;;;6.97;1.60;;;6.60;99.90;;;;;;4952056;28;20202;-74
2023/02/21 06:43:36;;;;;;;10.40;2.60;;;6.60;99.90;;;;;;4935008;29;20232;-76
2023/02/21 06:46:04;;;;;;;10.20;2.07;;;6.50;99.90;;;;;;4964460;28;20208;-74
2023/02/21 06:48:31;;;;;;;10.80;2.60;;;6.60;99.90;;;;;;4946718;29;20204;-72
2023/02/21 06:50:58;;;;;;;7.93;1.80;;;6.60;99.90;;;;;;4960549;28;20194;-71
2023/02/21 06:53:25;;;;;;;7.97;1.70;;;6.70;99.90;;;;;;4951124;28;20210;-72
2023/02/21 06:55:52;;;;;;;10.20;2.23;;;6.70;99.90;;;;;;4933077;29;20216;-71
2023/02/21 06:58:19;;;;;;;8.70;1.97;;;6.70;99.90;;;;;;4953055;28;20206;-73
2023/02/21 07:00:46;;;;;;;6.50;1.80;;;6.70;99.90;;;;;;4935861;29;20194;-74
2023/02/21 07:03:16;;;;;;;11.03;1.97;;;6.70;99.90;;;;;;4937072;29;20758;-74
2023/02/21 07:05:43;;;;;;;7.60;1.87;;;6.70;99.90;;;;;;4937075;29;20206;-76
2023/02/21 07:08:10;;;;;;;8.93;1.53;;;6.70;99.90;;;;;;4937170;29;20205;-72
2023/02/21 07:10:37;;;;;;;7.87;2.00;;;6.70;99.90;;;;;;4953993;29;20220;-72
2023/02/21 07:13:03;;;;;;;11.00;1.90;;;6.70;99.90;;;;;;4936817;29;20244;-75
2023/02/21 07:15:30;;;;;;;8.40;1.67;;;6.60;99.90;;;;;;4936680;29;20226;-74
2023/02/21 07:17:57;;;;;;;7.87;1.90;;;6.60;99.90;;;;;;4953931;29;20205;-71
2023/02/21 07:20:25;;;;;;;7.93;1.73;;;6.50;99.90;;;;;;4957235;28;20200;-74
2023/02/21 07:22:52;;;;;;;7.37;1.80;;;6.60;99.90;;;;;;4956173;28;20328;-72
2023/02/21 07:25:21;;;;;;;9.23;1.87;;;6.60;99.90;;;;;;4931659;29;20647;-72
2023/02/21 07:27:48;;;;;;;6.90;1.93;;;6.60;99.90;;;;;;4917805;29;20216;-73
2023/02/21 07:30:15;;;;;;;8.93;1.83;;;6.60;99.90;;;;;;4951417;29;20201;-71
2023/02/21 07:32:43;;;;;;;10.17;1.70;;;6.60;99.90;;;;;;4936733;29;20245;-72
2023/02/21 07:35:10;;;;;;;9.70;1.97;;;6.60;99.90;;;;;;4922850;29;20233;-70
2023/02/21 07:37:37;;;;;;;8.63;1.87;;;6.60;99.90;;;;;;4917746;29;20235;-70
2023/02/21 07:40:07;;;;;;;10.60;2.30;;;6.50;99.90;;;;;;4949926;29;20224;-76
2023/02/21 07:42:34;;;;;;;9.47;2.10;;;6.50;99.90;;;;;;4919428;29;20259;-71
2023/02/21 07:45:02;;;;;;;6.03;1.60;;;6.50;99.90;;;;;;4968693;28;20202;-78
2023/02/21 07:47:29;;;;;;;9.73;1.80;;;6.50;99.90;;;;;;4968547;28;20194;-80
2023/02/21 07:49:56;;;;;;;12.40;2.13;;;6.50;99.90;;;;;;4953849;29;20194;-82
2023/02/21 07:52:24;;;;;;;11.80;2.40;;;6.50;99.90;;;;;;4937230;29;20212;-80
2023/02/21 07:54:51;;;;;;;7.50;1.90;;;6.50;99.90;;;;;;4929920;29;20602;-86
2023/02/21 07:57:18;;;;;;;10.40;2.03;;;6.50;99.90;;;;;;4922201;29;20207;-84
2023/02/21 07:59:47;;;;;;;8.50;1.93;;;6.50;99.90;;;;;;4952881;29;20226;-71
2023/02/21 08:02:14;;;;;;;8.77;2.17;;;6.50;99.90;;;;;;4952773;29;20230;-78
2023/02/21 08:04:41;;;;;;;10.07;2.10;;;6.50;99.90;;;;;;4952858;29;20198;-74
2023/02/21 08:07:08;;;;;;;10.40;2.00;;;6.50;99.90;;;;;;4932039;29;20239;-73
2023/02/21 08:09:37;;;;;;;9.67;2.00;;;6.50;99.90;;;;;;4957522;29;20246;-75
2023/02/21 08:12:04;;;;;;;6.27;1.60;;;6.60;99.90;;;;;;4939181;29;20246;-82
2023/02/21 08:14:31;;;;;;;11.17;2.60;;;6.50;99.90;;;;;;4972063;28;20292;-84
2023/02/21 08:16:59;;;;;;;8.10;1.97;;;6.50;99.90;;;;;;4972052;28;20558;-82
2023/02/21 08:19:26;;;;;;;9.93;1.87;;;6.60;99.90;;;;;;4956941;29;20590;-73
2023/02/21 08:21:52;;;;;;;10.30;2.20;;;6.50;99.90;;;;;;4939574;29;20661;-75
2023/02/21 08:24:19;;;;;;;8.57;1.90;;;6.60;99.90;;;;;;4966642;28;20208;-80
2023/02/21 08:26:46;;;;;;;11.93;2.30;;;6.60;99.90;;;;;;4976186;28;20204;-86
2023/02/21 08:29:16;;;;;;;9.13;1.93;;;6.70;99.90;;;;;;4964683;28;20584;-79
2023/02/21 08:31:43;;;;;;;10.00;2.30;;;6.70;99.90;;;;;;4939280;29;20670;-82
2023/02/21 08:34:11;;;;;;;9.97;2.10;;;6.80;99.90;;;;;;4939416;29;20323;-80
2023/02/21 08:36:42;;;;;;;8.67;2.10;;;6.70;99.90;;;;;;4956640;29;20216;-81
2023/02/21 08:39:09;;;;;;;9.43;2.00;;;6.60;99.90;;;;;;4939777;29;20306;-83
2023/02/21 08:41:42;;;;;;;8.93;1.93;;;6.70;99.90;;;;;;4939646;29;20196;-78
2023/02/21 08:44:11;;;;;;;10.17;2.23;;;6.70;99.90;;;;;;4939121;29;20222;-81
2023/02/21 08:46:41;;;;;;;10.73;2.20;;;6.70;99.90;;;;;;4956629;29;20273;-84
2023/02/21 08:49:08;;;;;;;8.93;2.17;;;6.80;99.90;;;;;;4939426;29;20205;-84
2023/02/21 08:51:35;;;;;;;12.13;2.10;;;6.80;99.90;;;;;;4956660;29;20269;-85
2023/02/21 08:54:03;;;;;;;8.60;2.20;;;6.80;99.90;;;;;;4939155;29;20197;-82
2023/02/21 08:56:29;;;;;;;12.70;2.13;;;6.80;99.90;;;;;;4939284;29;20208;-77
2023/02/21 08:58:57;;;;;;;12.80;2.27;;;6.80;99.90;;;;;;4939438;29;20196;-69
2023/02/21 09:01:29;;;;;;;13.03;2.40;;;6.80;99.90;;;;;;5366817;23;20255;-72
2023/02/21 09:03:55;;;;;;;13.03;2.50;;;6.80;99.90;;;;;;4955794;28;20360;-77
2023/02/21 09:06:22;;;;;;;8.33;2.10;;;6.70;99.90;;;;;;4941527;29;20205;-69
2023/02/21 09:08:50;;;;;;;7.80;2.00;;;6.80;99.90;;;;;;4951500;29;20198;-69
2023/02/21 09:11:16;;;;;;;8.90;2.00;;;6.70;99.90;;;;;;4951849;29;20202;-72
2023/02/21 09:13:43;;;;;;;10.17;2.33;;;6.80;99.90;;;;;;4965320;28;20214;-71
2023/02/21 09:16:10;;;;;;;12.37;2.23;;;6.80;99.90;;;;;;4985076;28;20225;-69
2023/02/21 09:18:37;;;;;;;11.43;2.53;;;6.80;99.90;;;;;;4975416;28;20198;-74
2023/02/21 09:21:06;;;;;;;11.83;2.20;;;6.70;99.90;;;;;;4975711;28;20208;-71
2023/02/21 09:23:33;;;;;;;7.00;1.97;;;6.70;99.90;;;;;;4990288;28;20227;-70
2023/02/21 09:26:00;;;;;;;12.00;2.53;;;6.70;99.90;;;;;;4990305;28;20197;-69
2023/02/21 09:28:28;;;;;;;10.47;2.07;;;6.70;99.90;;;;;;4970421;28;20213;-76
2023/02/21 09:30:55;;;;;;;10.40;2.33;;;6.80;99.90;;;;;;4986954;28;20201;-77
2023/02/21 09:33:21;;;;;;;9.90;2.20;;;6.80;99.90;;;;;;4987069;28;20211;-72
2023/02/21 09:35:52;;;;;;;12.23;2.03;;;6.90;99.90;;;;;;4970723;28;20202;-72
2023/02/21 09:38:19;;;;;;;9.70;1.93;;;7.00;99.90;;;;;;4970800;28;20647;-70
2023/02/21 09:40:54;;;;;;;9.77;2.10;;;7.20;99.90;;;;;;4955725;28;20685;-72
2023/02/21 09:43:39;;;;;;;12.07;2.17;;;7.20;99.90;;;;;;4970245;28;20228;-70
2023/02/21 09:46:13;;;;;;;11.43;2.50;;;6.90;99.90;;;;;;4955422;28;20605;-70
2023/02/21 09:48:42;;;;;;;8.63;1.90;;;6.90;99.90;;;;;;4970820;28;20225;-69
2023/02/21 09:51:11;;;;;;;8.97;2.20;;;6.90;99.90;;;;;;4970558;28;20190;-82
2023/02/21 09:53:42;;;;;;;10.93;2.00;;;6.90;99.90;;;;;;4970361;28;20602;-68
2023/02/21 09:56:17;;;;;;;13.13;2.97;;;7.00;99.90;;;;;;4970482;28;20201;-73
2023/02/21 09:58:44;;;;;;;12.23;2.47;;;6.90;99.90;;;;;;4972735;28;20627;-69
2023/02/21 10:01:37;;;;;;;10.60;2.37;;;7.00;99.90;;;;;;4974575;28;20201;-70
2023/02/21 10:04:24;;;;;;;8.00;2.00;;;7.20;99.90;;;;;;4982826;28;20247;-71
2023/02/21 10:07:10;;;;;;;9.23;1.80;;;7.20;99.90;;;;;;4975219;28;20634;-71
2023/02/21 10:09:58;;;;;;;10.13;2.00;;;7.20;99.90;;;;;;4969036;28;20662;-72
2023/02/21 10:12:54;;;;;;;8.67;2.60;;;7.20;99.90;;;;;;4957257;28;20303;-70
2023/02/21 10:15:24;;;;;;;7.57;2.30;;;7.30;99.90;;;;;;4972390;28;20227;-68
2023/02/21 10:17:59;;;;;;;7.47;2.20;;;7.40;99.90;;;;;;4956972;28;20205;-78
2023/02/21 10:20:34;;;;;;;9.73;2.20;;;7.60;99.90;;;;;;4973677;28;20280;-72
2023/02/21 10:23:04;;;;;;;8.17;2.47;;;7.70;99.90;;;;;;4949987;29;20312;-72
2023/02/21 10:25:33;;;;;;;8.67;2.10;;;7.60;99.90;;;;;;4937684;29;20202;-71
2023/02/21 10:28:00;;;;;;;8.80;2.70;;;7.80;99.90;;;;;;4938137;29;20194;-74
2023/02/21 10:30:36;;;;;;;5.60;2.10;;;7.80;99.90;;;;;;4956874;28;20553;-71
2023/02/21 10:33:05;;;;;;;7.90;2.20;;;8.00;99.90;;;;;;4956535;28;20224;-72
2023/02/21 10:35:36;;;;;;;8.37;2.07;;;8.10;99.90;;;;;;4956250;28;20216;-71
2023/02/21 10:38:11;;;;;;;9.33;2.50;;;7.70;99.90;;;;;;4956529;28;20205;-73
2023/02/21 10:40:55;;;;;;;9.80;2.33;;;7.90;99.90;;;;;;4988776;28;20200;-69
2023/02/21 10:43:34;;;;;;;10.33;2.50;;;8.20;99.90;;;;;;4956385;28;20225;-70
2023/02/21 10:46:21;;;;;;;10.20;2.30;;;8.10;99.90;;;;;;4972607;28;20197;-72
2023/02/21 10:48:52;;;;;;;4.97;2.00;;;8.40;99.90;;;;;;4956715;28;20209;-76
2023/02/21 10:51:33;;;;;;;10.80;2.10;;;8.60;99.90;;;;;;4972516;28;20687;-78
2023/02/21 10:54:19;;;;;;;9.27;2.20;;;8.70;99.90;;;;;;4956598;28;20206;-76
2023/02/21 10:56:48;;;;;;;9.20;1.97;;;8.70;99.90;;;;;;4940609;28;20272;-75
2023/02/21 10:59:37;;;;;;;8.90;2.13;;;9.00;99.90;;;;;;4956575;28;20224;-73
2023/02/21 11:02:32;;;;;;;10.40;2.10;;;8.90;99.90;;;;;;4962139;28;20222;-74
2023/02/21 11:05:21;;;;;;;8.80;2.10;;;8.80;99.90;;;;;;4972028;28;20232;-70
2023/02/21 11:08:00;;;;;;;9.10;2.20;;;8.70;99.90;;;;;;4972222;28;20202;-73
2023/02/21 11:10:34;;;;;;;7.20;2.20;;;8.90;99.90;;;;;;4972544;28;20200;-70
2023/02/21 11:13:04;;;;;;;8.60;2.00;;;9.10;99.90;;;;;;4972870;28;20251;-75
2023/02/21 11:15:31;;;;;;;5.70;1.97;;;9.10;99.90;;;;;;4972389;28;20221;-83
2023/02/21 11:18:04;;;;;;;5.37;1.80;;;9.10;99.90;;;;;;4972265;28;20265;-69
2023/02/21 11:20:32;;;;;;;8.27;2.40;;;9.20;99.90;;;;;;4972204;28;20192;-82
2023/02/21 11:22:59;;;;;;;9.07;2.00;;;9.00;99.90;;;;;;4988647;28;20682;-82
2023/02/21 11:25:31;;;;;;;6.17;1.90;;;8.80;99.90;;;;;;4973537;28;20221;-82
2023/02/21 11:28:21;;;;;;;7.40;2.30;;;8.80;99.90;;;;;;4976121;28;20201;-76
2023/02/21 11:31:00;;;;;;;5.23;1.70;;;8.90;99.90;;;;;;4992340;28;20209;-71
2023/02/21 11:33:31;;;;;;;6.00;1.90;;;9.00;99.90;;;;;;4976141;28;20193;-72
2023/02/21 11:36:14;;;;;;;8.70;2.10;;;9.20;99.90;;;;;;4991901;28;20674;-74
2023/02/21 11:38:59;;;;;;;7.50;1.80;;;9.70;99.90;;;;;;4991932;28;20201;-72
2023/02/21 11:41:38;;;;;;;10.07;2.10;;;9.40;99.90;;;;;;4977054;28;20189;-72
2023/02/21 11:44:34;;;;;;;8.07;2.10;;;9.10;99.90;;;;;;4991796;28;20700;-71
2023/02/21 11:47:15;;;;;;;8.37;2.23;;;8.80;99.90;;;;;;5009021;28;20207;-72
2023/02/21 11:50:04;;;;;;;6.27;1.77;;;8.60;99.90;;;;;;4986524;28;20266;-68
2023/02/21 11:52:34;;;;;;;6.80;2.03;;;8.60;99.90;;;;;;4972935;28;20225;-68
2023/02/21 11:55:01;;;;;;;8.70;1.87;;;9.00;99.90;;;;;;4976903;28;20193;-69
2023/02/21 11:58:06;;;;;;;8.33;2.07;;;9.20;99.90;;;;;;4975568;28;20611;-71
2023/02/21 12:01:00;;;;;;;7.37;2.20;;;9.60;99.90;;;;;;4917084;29;20225;-73
2023/02/21 12:03:49;;;;;;;6.80;1.60;;;9.30;99.90;;;;;;4898232;29;20231;-74
2023/02/21 12:06:30;;;;;;;6.70;1.90;;;9.70;99.90;;;;;;4898220;29;20320;-68
2023/02/21 12:09:09;;;;;;;7.63;2.17;;;10.40;99.90;;;;;;4898147;29;20287;-76
2023/02/21 12:12:06;;;;;;;5.43;1.70;;;9.70;99.90;;;;;;4907199;29;20603;-72
2023/02/21 12:14:49;;;;;;;6.77;1.67;;;9.40;99.90;;;;;;4907350;29;20252;-74
2023/02/21 12:17:40;;;;;;;7.23;1.70;;;9.10;99.90;;;;;;4900901;29;20208;-75
2023/02/21 12:20:20;;;;;;;6.63;2.00;;;8.90;99.90;;;;;;4899879;29;20271;-72
2023/02/21 12:23:25;;;;;;;7.97;1.73;;;8.60;99.90;;;;;;4914123;29;20284;-76
2023/02/21 12:26:01;;;;;;;7.80;1.70;;;8.50;99.90;;;;;;4913993;29;20261;-70
2023/02/21 12:28:39;;;;;;;7.83;1.93;;;8.50;99.90;;;;;;4898129;29;20684;-70
2023/02/21 12:31:14;;;;;;;12.93;2.30;;;8.50;99.90;;;;;;4913585;29;20217;-70
2023/02/21 12:34:03;;;;;;;8.33;1.90;;;8.60;99.90;;;;;;4914286;29;20199;-71
2023/02/21 12:36:29;;;;;;;8.13;2.30;;;8.60;99.90;;;;;;4904071;29;20208;-73
2023/02/21 12:39:24;;;;;;;6.77;1.70;;;8.90;99.90;;;;;;4956119;28;20190;-79
2023/02/21 12:42:45;;;;;;;8.37;1.97;;;9.00;99.90;;;;;;4968554;28;20654;-73
2023/02/21 12:45:30;;;;;;;6.77;1.80;;;9.10;99.90;;;;;;4866953;29;20221;-73
2023/02/21 12:48:06;;;;;;;7.27;1.80;;;9.20;99.90;;;;;;4849888;29;20664;-72
2023/02/21 12:50:43;;;;;;;8.80;2.10;;;8.80;99.90;;;;;;4850494;29;20283;-74
2023/02/21 12:53:23;;;;;;;7.37;1.80;;;8.60;99.90;;;;;;4855852;29;20592;-71
2023/02/21 12:56:03;;;;;;;8.37;1.83;;;8.40;99.90;;;;;;4849128;29;20193;-72
2023/02/21 12:59:05;;;;;;;6.83;1.77;;;8.30;99.90;;;;;;4852081;29;20349;-74
2023/02/21 13:01:38;;;;;;;5.70;2.23;;;8.30;99.90;;;;;;4877473;29;20269;-67
2023/02/21 13:04:34;;;;;;;6.77;1.80;;;8.10;99.90;;;;;;4896626;29;20291;-70
2023/02/21 13:07:17;;;;;;;5.40;1.87;;;8.20;99.90;;;;;;4880965;29;20210;-71
2023/02/21 13:09:59;;;;;;;7.63;2.07;;;8.40;99.90;;;;;;4896960;29;20200;-71
2023/02/21 13:12:50;;;;;;;8.63;1.90;;;8.40;99.90;;;;;;4899667;29;20335;-75
2023/02/21 13:15:21;;;;;;;6.47;1.77;;;8.40;99.90;;;;;;4898629;29;20224;-72
2023/02/21 13:18:04;;;;;;;8.53;2.17;;;8.30;99.90;;;;;;4903627;29;20209;-71
2023/02/21 13:20:51;;;;;;;7.53;2.57;;;8.00;99.90;;;;;;4972046;28;20201;-74
2023/02/21 13:26:39;;;;;;;8.20;2.57;;;7.80;99.90;;;;;;4977290;28;20589;-77
2023/02/21 13:29:20;;;;;;;8.57;3.00;;;7.60;99.90;;;;;;4976152;28;20191;-76
2023/02/21 13:32:00;;;;;;;9.03;3.00;;;7.30;99.90;;;;;;4986449;28;20850;-79
2023/02/21 13:34:39;;;;;;;9.67;3.00;;;6.90;99.90;;;;;;4987469;28;20255;-77
2023/02/21 13:37:15;;;;;;;11.67;3.47;;;7.00;99.90;;;;;;4972883;28;20612;-80
2023/02/21 13:39:51;;;;;;;10.37;3.33;;;7.00;99.90;;;;;;4974626;28;20284;-78
2023/02/21 13:42:26;;;;;;;10.43;3.63;;;7.40;99.90;;;;;;4972272;28;20579;-77
2023/02/21 13:45:17;;;;;;;9.87;3.33;;;7.60;99.90;;;;;;4972383;28;20575;-75
2023/02/21 13:47:51;;;;;;;10.07;3.30;;;7.70;99.90;;;;;;4968783;28;20215;-72
2023/02/21 13:50:33;;;;;;;10.13;3.03;;;7.90;99.90;;;;;;4974285;28;20197;-78
2023/02/21 13:53:25;;;;;;;11.73;3.00;;;7.80;99.90;;;;;;4989632;28;20209;-71
2023/02/21 13:56:13;;;;;;;8.73;2.90;;;7.60;99.90;;;;;;4985972;28;20295;-73
2023/02/21 13:58:47;;;;;;;9.03;2.80;;;7.40;99.90;;;;;;4979156;28;20209;-76
2023/02/21 14:01:29;;;;;;;10.47;2.53;;;7.40;99.90;;;;;;4991551;28;20235;-77
2023/02/21 14:03:56;;;;;;;11.23;2.93;;;7.40;99.90;;;;;;4973743;28;20550;-74
2023/02/21 14:06:28;;;;;;;11.63;2.57;;;7.50;99.90;;;;;;4977915;28;20204;-71
2023/02/21 14:09:06;;;;;;;11.30;2.43;;;7.60;99.90;;;;;;4975361;28;20283;-71
2023/02/21 14:11:47;;;;;;;10.43;2.60;;;7.50;99.90;;;;;;5050231;28;20612;-71
2023/02/21 14:14:33;;;;;;;10.87;2.50;;;7.60;99.90;;;;;;5048602;28;20202;-72
2023/02/21 14:17:07;;;;;;;16.50;3.97;;;7.70;99.90;;;;;;5030524;28;20192;-76
2023/02/21 14:19:51;;;;;;;8.73;2.37;;;7.60;99.90;;;;;;5032865;28;20285;-75
2023/02/21 14:22:25;;;;;;;11.37;2.17;;;7.60;99.90;;;;;;5081981;28;20298;-71
2023/02/21 14:25:15;;;;;;;9.67;2.37;;;7.70;99.90;;;;;;5029745;28;20203;-70
2023/02/21 14:27:42;;;;;;;12.13;2.47;;;7.70;99.90;;;;;;5024717;28;20196;-75
2023/02/21 14:30:12;;;;;;;11.80;2.47;;;7.60;99.90;;;;;;5026938;28;20225;-75
2023/02/21 14:32:49;;;;;;;13.23;2.50;;;7.50;99.90;;;;;;5027999;28;20202;-74
2023/02/21 14:35:18;;;;;;;13.77;3.23;;;7.60;99.90;;;;;;5029456;28;20229;-78
2023/02/21 14:38:01;;;;;;;8.43;2.20;;;7.60;99.90;;;;;;5027854;28;20219;-74
2023/02/21 14:40:31;;;;;;;9.53;2.27;;;7.60;99.90;;;;;;5026742;28;20209;-76
2023/02/21 14:43:19;;;;;;;12.10;2.77;;;7.70;99.90;;;;;;5025393;28;20195;-75
2023/02/21 14:46:01;;;;;;;13.50;2.90;;;7.60;99.90;;;;;;5043555;28;20191;-75
2023/02/21 14:48:55;;;;;;;9.23;2.40;;;7.60;99.90;;;;;;5027997;28;20218;-71
2023/02/21 14:51:31;;;;;;;11.97;2.37;;;7.60;99.90;;;;;;5024271;28;20265;-72
2023/02/21 14:54:29;;;;;;;11.97;2.40;;;7.60;99.90;;;;;;5024355;28;20188;-71
2023/02/21 14:57:25;;;;;;;15.17;3.10;;;7.60;99.90;;;;;;5023299;28;20202;-79
2023/02/21 15:00:10;;;;;;;12.73;3.07;;;7.60;99.90;;;;;;5018058;28;20220;-74
2023/02/21 15:02:43;;;;;;;12.00;2.70;;;7.50;99.90;;;;;;5005291;28;20199;-70
2023/02/21 15:05:18;;;;;;;12.03;2.50;;;7.50;99.90;;;;;;5020940;28;20653;-70
2023/02/21 15:07:48;;;;;;;11.33;2.67;;;7.40;99.90;;;;;;5016183;28;20203;-74
2023/02/21 15:10:26;;;;;;;10.10;2.70;;;7.50;99.90;;;;;;5044809;28;20235;-76
2023/02/21 15:12:56;;;;;;;16.20;3.20;;;7.50;99.90;;;;;;5048620;28;20217;-80
2023/02/21 15:15:33;;;;;;;14.03;3.17;;;7.50;99.90;;;;;;5026072;28;20393;-78
2023/02/21 15:18:22;;;;;;;11.07;3.10;;;7.50;99.90;;;;;;5028012;28;20790;-79
2023/02/21 15:21:01;;;;;;;19.60;3.57;;;7.50;99.90;;;;;;5019597;28;20203;-79
2023/02/21 15:23:31;;;;;;;12.10;3.07;;;7.40;99.90;;;;;;5012655;28;20591;-79
2023/02/21 15:26:15;;;;;;;15.57;3.20;;;7.40;99.90;;;;;;5046451;28;20196;-71
2023/02/21 15:28:41;;;;;;;16.03;3.20;;;7.40;99.90;;;;;;5015268;28;20294;-75
2023/02/21 15:31:09;;;;;;;14.27;3.10;;;7.30;99.90;;;;;;5011953;28;20237;-73
2023/02/21 15:33:40;;;;;;;14.90;3.20;;;7.30;99.90;;;;;;5047848;28;20199;-72
2023/02/21 15:36:20;;;;;;;17.77;3.30;;;7.30;99.90;;;;;;5018330;28;20201;-76
2023/02/21 15:38:52;;;;;;;17.33;3.10;;;7.30;99.90;;;;;;5012010;28;20216;-73
2023/02/21 15:41:32;;;;;;;17.17;3.87;;;7.30;99.90;;;;;;5009420;28;20196;-79
2023/02/21 15:44:27;;;;;;;14.77;3.23;;;7.30;99.90;;;;;;5015064;28;20297;-79
2023/02/21 15:47:12;;;;;;;14.63;3.97;;;7.30;99.90;;;;;;4997090;28;20198;-82